KALX/ALX METAR and TAF weather

Enter ICAO airport designator
Station Type Date Time Source
KALX METAR 2020/06/06 14:35 UTC NOAA

KALX 061435Z AUTO 00000KT 10SM OVC012 25/22 A3005 RMK AO2 T02460217


Station Type Date Time Source
KALX Decoded METAR 2020/06/06 14:35 UTC NOAA

Alexander City, Thomas C Russell Field Airport, AL, United States (KALX) 32-54-53N 085-57-46W
Jun 06, 2020 - 10:35 AM EDT / 2020.06.06 1435 UTC
Wind: Calm:0
Visibility: 10 mile(s):0
Sky conditions: overcast
Temperature: 76.3 F (24.6 C)
Dew Point: 71.1 F (21.7 C)
Relative Humidity: 83%
Pressure (altimeter): 30.05 in. Hg (1017 hPa)
ob: KALX 061435Z AUTO 00000KT 10SM OVC012 25/22 A3005 RMK AO2 T02460217
cycle: 14

Station Type Date Time Source
KALX TAF UTC NOAA

Error!

Example: see airport list